createdAt,value
2023-02-11T00:01:10.576Z,71.51
2023-02-11T00:03:38.811Z,70.21
2023-02-11T00:06:09.381Z,71.64
2023-02-11T00:08:37.025Z,72.78
2023-02-11T00:11:04.634Z,72.08
2023-02-11T00:13:31.719Z,70.92
2023-02-11T00:15:58.899Z,70.45
2023-02-11T00:18:26.062Z,72.42
2023-02-11T00:20:53.675Z,73.17
2023-02-11T00:23:20.772Z,71.74
2023-02-11T00:25:47.856Z,72.23
2023-02-11T00:28:15.020Z,73.91
2023-02-11T00:30:42.299Z,72.60
2023-02-11T00:33:09.530Z,71.46
2023-02-11T00:35:38.579Z,72.23
2023-02-11T00:38:08.105Z,73.95
2023-02-11T00:40:35.223Z,72.35
2023-02-11T00:43:03.959Z,72.48
2023-02-11T00:45:31.228Z,71.73
2023-02-11T00:47:58.358Z,72.29
2023-02-11T00:50:25.565Z,72.61
2023-02-11T00:52:52.682Z,72.67
2023-02-11T00:55:19.768Z,72.71
2023-02-11T00:57:46.866Z,73.28
2023-02-11T01:00:16.933Z,73.64
2023-02-11T01:02:45.177Z,73.88
2023-02-11T01:05:12.357Z,73.73
2023-02-11T01:07:39.480Z,73.73
2023-02-11T01:10:06.668Z,73.71
2023-02-11T01:12:36.252Z,73.83
2023-02-11T01:15:04.678Z,73.35
2023-02-11T01:17:34.673Z,74.32
2023-02-11T01:20:07.736Z,74.85
2023-02-11T01:22:37.368Z,74.62
2023-02-11T01:25:04.699Z,74.09
2023-02-11T01:27:32.024Z,74.29
2023-02-11T01:29:59.166Z,75.11
2023-02-11T01:32:26.308Z,74.69
2023-02-11T01:34:54.528Z,75.04
2023-02-11T01:37:21.634Z,74.69
2023-02-11T01:39:48.865Z,74.90
2023-02-11T01:42:18.450Z,74.59
2023-02-11T01:44:45.645Z,74.59
2023-02-11T01:47:12.736Z,73.72
2023-02-11T01:49:44.762Z,74.45
2023-02-11T01:52:20.148Z,74.46
2023-02-11T01:55:11.015Z,74.04
2023-02-11T01:57:41.139Z,73.60
2023-02-11T02:00:35.589Z,72.56
2023-02-11T02:03:22.505Z,71.40
2023-02-11T02:06:06.396Z,70.50
2023-02-11T02:08:46.844Z,71.15
2023-02-11T02:11:14.020Z,71.92
2023-02-11T02:13:41.650Z,72.02
2023-02-11T02:16:14.144Z,70.76
2023-02-11T02:18:41.258Z,71.20
2023-02-11T02:22:04.732Z,71.65
2023-02-11T02:24:50.374Z,71.09
2023-02-11T02:27:48.692Z,71.32
2023-02-11T02:30:37.743Z,69.63
2023-02-11T02:33:26.515Z,68.66
2023-02-11T02:35:56.366Z,68.77
2023-02-11T02:38:30.494Z,69.35
2023-02-11T02:41:15.564Z,69.89
2023-02-11T02:43:49.756Z,69.28
2023-02-11T02:46:24.145Z,70.24
2023-02-11T02:48:53.185Z,71.02
2023-02-11T02:51:35.586Z,70.66
2023-02-11T02:54:30.651Z,71.24
2023-02-11T02:57:16.217Z,70.86
2023-02-11T02:59:55.531Z,70.64
2023-02-11T03:02:33.857Z,71.17
2023-02-11T03:05:31.233Z,70.43
2023-02-11T03:08:09.156Z,70.69
2023-02-11T03:10:45.314Z,71.03
2023-02-11T03:13:16.962Z,70.76
2023-02-11T03:15:57.166Z,69.64
2023-02-11T03:18:27.554Z,69.54
2023-02-11T03:20:56.813Z,70.05
2023-02-11T03:23:29.496Z,69.85
2023-02-11T03:26:02.767Z,69.61
2023-02-11T03:28:35.588Z,69.69
2023-02-11T03:31:27.903Z,69.54
2023-02-11T03:34:10.256Z,70.47
2023-02-11T03:36:59.817Z,70.32
2023-02-11T03:39:35.915Z,71.70
2023-02-11T03:42:05.844Z,71.50
2023-02-11T03:44:40.043Z,72.12
2023-02-11T03:47:10.142Z,71.98
2023-02-11T03:49:39.781Z,71.23
2023-02-11T03:52:11.201Z,71.34
2023-02-11T03:54:42.098Z,71.85
2023-02-11T03:57:09.243Z,71.52
2023-02-11T03:59:52.693Z,72.19
2023-02-11T04:02:20.824Z,71.07
2023-02-11T04:04:48.033Z,72.04
2023-02-11T04:07:15.151Z,71.36
2023-02-11T04:09:42.250Z,71.04
2023-02-11T04:12:09.368Z,71.70
2023-02-11T04:14:36.634Z,71.96
2023-02-11T04:17:04.148Z,72.35
2023-02-11T04:19:31.258Z,72.23
2023-02-11T04:21:58.470Z,72.21
2023-02-11T04:24:25.625Z,72.32
2023-02-11T04:26:52.796Z,72.87
2023-02-11T04:29:19.991Z,73.29
2023-02-11T04:31:47.574Z,72.30
2023-02-11T04:34:14.982Z,72.13
2023-02-11T04:36:42.070Z,72.23
2023-02-11T04:39:09.365Z,72.16
2023-02-11T04:41:36.437Z,72.25
2023-02-11T04:44:04.087Z,72.50
2023-02-11T04:46:31.225Z,72.19
2023-02-11T04:48:58.332Z,71.68
2023-02-11T04:51:25.922Z,71.15
2023-02-11T04:53:53.078Z,70.58
2023-02-11T04:56:20.250Z,70.07
2023-02-11T04:58:47.378Z,70.72
2023-02-11T05:01:16.181Z,70.18
2023-02-11T05:03:43.706Z,70.32
2023-02-11T05:06:11.711Z,70.34
2023-02-11T05:08:39.157Z,70.94
2023-02-11T05:11:07.508Z,71.12
2023-02-11T05:13:34.698Z,69.99
2023-02-11T05:16:01.846Z,69.44
2023-02-11T05:18:29.532Z,69.85
2023-02-11T05:20:56.783Z,70.84
2023-02-11T05:23:23.870Z,71.09
2023-02-11T05:25:51.229Z,71.78
2023-02-11T05:28:19.056Z,71.49
2023-02-11T05:30:46.174Z,71.32
2023-02-11T05:33:13.300Z,71.08
2023-02-11T05:35:40.363Z,70.68
2023-02-11T05:38:07.432Z,70.27
2023-02-11T05:40:34.527Z,70.94
2023-02-11T05:43:01.748Z,70.27
2023-02-11T05:45:29.194Z,69.75
2023-02-11T05:47:57.421Z,69.43
2023-02-11T05:50:24.605Z,69.58
2023-02-11T05:52:53.380Z,69.69
2023-02-11T05:55:20.546Z,69.81
2023-02-11T05:57:47.719Z,70.31
2023-02-11T06:00:15.241Z,70.23
2023-02-11T06:02:42.701Z,70.34
2023-02-11T06:05:09.942Z,68.53
2023-02-11T06:07:37.129Z,68.80
2023-02-11T06:10:04.550Z,68.15
2023-02-11T06:12:31.624Z,67.85
2023-02-11T06:14:58.702Z,68.41
2023-02-11T06:17:25.770Z,68.62
2023-02-11T06:19:52.824Z,69.70
2023-02-11T06:22:19.908Z,69.44
2023-02-11T06:25:00.736Z,69.96
2023-02-11T06:27:29.148Z,70.94
2023-02-11T06:29:56.302Z,71.24
2023-02-11T06:32:43.403Z,70.90
2023-02-11T06:35:12.065Z,70.28
2023-02-11T06:37:40.888Z,70.16
2023-02-11T06:40:09.572Z,70.33
2023-02-11T06:42:38.698Z,70.45
2023-02-11T06:45:08.935Z,70.37
2023-02-11T06:47:36.931Z,70.45
2023-02-11T06:50:04.442Z,70.83
2023-02-11T06:52:32.182Z,70.83
2023-02-11T06:54:59.401Z,70.38
2023-02-11T06:57:26.468Z,70.28
2023-02-11T06:59:53.579Z,69.53
2023-02-11T07:02:21.229Z,68.83
2023-02-11T07:04:49.367Z,68.33
2023-02-11T07:07:16.493Z,68.01
2023-02-11T07:09:43.625Z,68.09
2023-02-11T07:12:10.765Z,67.29
2023-02-11T07:14:37.948Z,67.18
2023-02-11T07:17:05.194Z,67.09
2023-02-11T07:19:32.298Z,66.46
2023-02-11T07:21:59.391Z,63.81
2023-02-11T07:24:26.686Z,63.51
2023-02-11T07:26:54.068Z,62.32
2023-02-11T07:29:21.563Z,63.03
2023-02-11T07:31:48.846Z,62.81
2023-02-11T07:34:16.120Z,62.01
2023-02-11T07:36:45.017Z,61.53
2023-02-11T07:39:12.460Z,61.23
2023-02-11T07:41:39.602Z,61.62
2023-02-11T07:44:06.960Z,60.98
2023-02-11T07:46:35.641Z,60.83
2023-02-11T07:49:03.180Z,59.97
2023-02-11T07:51:31.381Z,60.02
2023-02-11T07:53:59.797Z,60.55
2023-02-11T07:56:28.255Z,60.12
2023-02-11T07:58:56.849Z,61.53
2023-02-11T08:01:28.205Z,61.05
2023-02-11T08:03:56.970Z,61.69
2023-02-11T08:06:27.340Z,60.54
2023-02-11T08:08:54.481Z,59.98
2023-02-11T08:11:26.627Z,59.34
2023-02-11T08:13:54.543Z,59.30
2023-02-11T08:16:29.808Z,58.95
2023-02-11T08:19:00.477Z,57.76
2023-02-11T08:21:28.115Z,57.61
2023-02-11T08:23:55.454Z,57.13
2023-02-11T08:26:26.535Z,57.32
2023-02-11T08:28:55.082Z,56.83
2023-02-11T08:31:27.615Z,56.85
2023-02-11T08:33:57.875Z,56.56
2023-02-11T08:36:29.015Z,53.73
2023-02-11T08:39:16.081Z,53.79
2023-02-11T08:41:46.836Z,53.68
2023-02-11T08:44:14.030Z,53.07
2023-02-11T08:46:41.123Z,51.09
2023-02-11T08:49:09.034Z,51.63
2023-02-11T08:51:36.145Z,50.21
2023-02-11T08:54:03.453Z,49.92
2023-02-11T08:56:32.348Z,49.61
2023-02-11T08:58:59.438Z,50.24
2023-02-11T09:01:31.156Z,48.91
2023-02-11T09:03:58.779Z,46.64
2023-02-11T09:06:26.751Z,47.25
2023-02-11T09:08:57.231Z,47.96
2023-02-11T09:11:30.828Z,45.89
2023-02-11T09:13:59.575Z,44.69
2023-02-11T09:16:30.000Z,44.81
2023-02-11T09:18:58.911Z,44.65
2023-02-11T09:21:26.442Z,43.35
2023-02-11T09:23:54.344Z,43.07
2023-02-11T09:26:29.449Z,42.80
2023-02-11T09:28:57.199Z,42.50
2023-02-11T09:31:26.673Z,43.04
2023-02-11T09:33:57.133Z,42.47
2023-02-11T09:36:33.925Z,43.04
2023-02-11T09:39:02.342Z,42.69
2023-02-11T09:42:01.584Z,42.32
2023-02-11T09:44:35.429Z,43.62
2023-02-11T09:47:22.668Z,42.79
2023-02-11T09:50:12.349Z,41.71
2023-02-11T09:53:13.242Z,42.31
2023-02-11T09:55:44.843Z,41.52
2023-02-11T09:58:19.700Z,41.57
2023-02-11T10:01:10.245Z,42.11
2023-02-11T10:04:14.062Z,42.41
2023-02-11T10:06:54.276Z,42.26
2023-02-11T10:09:47.361Z,43.09
2023-02-11T10:12:32.692Z,41.86
2023-02-11T10:15:08.564Z,41.72
2023-02-11T10:17:49.634Z,42.51
2023-02-11T10:20:17.208Z,41.70
2023-02-11T10:22:54.754Z,40.12
2023-02-11T10:25:26.051Z,38.29
2023-02-11T10:27:57.790Z,39.05
2023-02-11T10:30:32.992Z,38.88
2023-02-11T10:33:15.064Z,39.00
2023-02-11T10:35:43.820Z,38.53
2023-02-11T10:38:11.494Z,39.05
2023-02-11T10:40:38.741Z,38.40
2023-02-11T10:43:13.412Z,37.95
2023-02-11T10:45:45.095Z,38.76
2023-02-11T10:48:41.492Z,38.92
2023-02-11T10:51:28.371Z,37.49
2023-02-11T10:54:04.587Z,36.99
2023-02-11T10:56:37.044Z,36.90
2023-02-11T10:59:24.335Z,37.42
2023-02-11T11:01:56.225Z,36.86
2023-02-11T11:04:38.263Z,36.20
2023-02-11T11:07:17.915Z,36.48
2023-02-11T11:09:52.715Z,36.40
2023-02-11T11:12:45.965Z,35.67
2023-02-11T11:15:23.483Z,35.00
2023-02-11T11:18:22.512Z,34.35
2023-02-11T11:21:17.952Z,35.53
2023-02-11T11:23:52.642Z,34.34
2023-02-11T11:26:20.264Z,34.31
2023-02-11T11:28:55.370Z,34.43
2023-02-11T11:31:30.240Z,33.37
2023-02-11T11:34:00.503Z,31.96
2023-02-11T11:36:37.256Z,32.84
2023-02-11T11:39:19.585Z,31.77
2023-02-11T11:41:56.482Z,32.39
2023-02-11T11:44:32.594Z,29.91
2023-02-11T11:47:11.574Z,31.16
2023-02-11T11:49:47.530Z,32.02
2023-02-11T11:52:46.332Z,31.55
2023-02-11T11:55:20.590Z,31.50
2023-02-11T11:57:48.956Z,31.22
2023-02-11T12:00:37.624Z,30.64
2023-02-11T12:03:27.859Z,31.59
2023-02-11T12:06:11.606Z,31.19
2023-02-11T12:08:57.053Z,31.83
2023-02-11T12:11:29.957Z,31.06
2023-02-11T12:14:18.080Z,32.25
2023-02-11T12:17:01.504Z,32.92
2023-02-11T12:19:59.268Z,32.96
2023-02-11T12:22:58.301Z,31.52
2023-02-11T12:25:27.481Z,32.09
2023-02-11T12:28:01.531Z,32.07
2023-02-11T12:30:40.538Z,31.75
2023-02-11T12:33:22.646Z,31.67
2023-02-11T12:35:59.173Z,32.66
2023-02-11T12:38:42.060Z,32.69
2023-02-11T12:41:49.242Z,33.07
2023-02-11T12:44:40.630Z,32.45
2023-02-11T12:47:24.860Z,32.48
2023-02-11T12:50:21.032Z,32.02
2023-02-11T12:52:59.900Z,30.47
2023-02-11T12:55:30.036Z,29.50
2023-02-11T12:57:59.525Z,29.97
2023-02-11T13:00:36.404Z,29.89
2023-02-11T13:03:16.744Z,30.07
2023-02-11T13:05:51.853Z,29.65
2023-02-11T13:08:35.317Z,30.16
2023-02-11T13:11:07.974Z,29.77
2023-02-11T13:13:48.986Z,29.35
2023-02-11T13:16:42.626Z,28.88
2023-02-11T13:19:12.750Z,28.38
2023-02-11T13:21:55.907Z,28.05
2023-02-11T13:24:39.197Z,28.40
2023-02-11T13:27:26.556Z,28.70
2023-02-11T13:30:11.454Z,28.79
2023-02-11T13:33:00.520Z,28.39
2023-02-11T13:35:31.832Z,28.09
2023-02-11T13:38:01.188Z,29.22
2023-02-11T13:40:33.102Z,28.69
2023-02-11T13:43:03.036Z,29.73
2023-02-11T13:45:36.069Z,30.60
2023-02-11T13:48:06.919Z,30.78
2023-02-11T13:50:39.699Z,30.65
2023-02-11T13:53:08.768Z,30.58
2023-02-11T13:55:36.103Z,30.73
2023-02-11T13:58:05.961Z,30.65
2023-02-11T14:00:36.132Z,30.45
2023-02-11T14:03:30.862Z,30.54
2023-02-11T14:06:28.583Z,31.30
2023-02-11T14:09:11.314Z,30.14
2023-02-11T14:11:41.618Z,30.49
2023-02-11T14:14:30.552Z,30.61
2023-02-11T14:17:06.794Z,30.39
2023-02-11T14:19:36.364Z,30.89
2023-02-11T14:22:16.551Z,30.96
2023-02-11T14:24:53.886Z,30.55
2023-02-11T14:27:29.570Z,31.99
2023-02-11T14:30:26.274Z,31.82
2023-02-11T14:33:06.306Z,31.45
2023-02-11T14:35:40.478Z,32.29
2023-02-11T14:38:31.642Z,32.96
2023-02-11T14:41:09.382Z,33.73
2023-02-11T14:43:42.901Z,33.62
2023-02-11T14:46:10.090Z,33.81
2023-02-11T14:48:39.032Z,33.74
2023-02-11T14:51:14.531Z,33.93
2023-02-11T14:53:49.545Z,33.47
2023-02-11T14:56:22.268Z,32.00
2023-02-11T14:58:51.913Z,31.89
2023-02-11T15:01:36.140Z,30.89
2023-02-11T15:04:05.703Z,30.11
2023-02-11T15:06:37.691Z,30.41
2023-02-11T15:09:17.024Z,30.52
2023-02-11T15:11:47.719Z,28.63
2023-02-11T15:14:25.602Z,27.72
2023-02-11T15:16:55.843Z,27.51
2023-02-11T15:19:28.876Z,26.87
2023-02-11T15:21:56.896Z,26.49
2023-02-11T15:24:25.718Z,27.11
2023-02-11T15:26:56.715Z,27.26
2023-02-11T15:29:26.689Z,27.50
2023-02-11T15:32:14.787Z,29.12
2023-02-11T15:34:43.099Z,28.83
2023-02-11T15:37:31.727Z,31.04
2023-02-11T15:40:16.005Z,30.22
2023-02-11T15:42:58.501Z,30.80
2023-02-11T15:45:38.520Z,30.97
2023-02-11T15:48:31.708Z,31.10
2023-02-11T15:51:02.400Z,31.15
2023-02-11T15:53:33.441Z,32.19
2023-02-11T15:56:09.946Z,31.38
2023-02-11T15:58:40.151Z,32.33
2023-02-11T16:01:08.776Z,32.49
2023-02-11T16:03:36.246Z,33.33
2023-02-11T16:06:15.340Z,32.86
2023-02-11T16:08:43.142Z,34.29
2023-02-11T16:11:26.486Z,35.23
2023-02-11T16:13:53.585Z,35.12
2023-02-11T16:16:26.144Z,35.61
2023-02-11T16:19:04.725Z,36.16
2023-02-11T16:21:38.992Z,35.86
2023-02-11T16:24:08.259Z,36.07
2023-02-11T16:26:43.107Z,35.88
2023-02-11T16:29:15.766Z,36.64
2023-02-11T16:31:45.954Z,36.47
2023-02-11T16:34:15.458Z,37.09
2023-02-11T16:36:42.961Z,37.83
2023-02-11T16:39:10.671Z,38.64
2023-02-11T16:41:37.843Z,38.43
2023-02-11T16:44:05.118Z,39.22
2023-02-11T16:46:33.421Z,39.91
2023-02-11T16:49:20.280Z,40.50
2023-02-11T16:51:50.235Z,40.31
2023-02-11T16:54:17.973Z,40.91
2023-02-11T16:56:45.400Z,40.91
2023-02-11T16:59:12.610Z,41.04
2023-02-11T17:01:41.581Z,41.24
2023-02-11T17:04:16.591Z,41.93
2023-02-11T17:06:43.685Z,42.27
2023-02-11T17:09:20.655Z,42.77
2023-02-11T17:11:48.632Z,43.21
2023-02-11T17:14:15.920Z,43.35
2023-02-11T17:16:43.749Z,43.40
2023-02-11T17:19:16.850Z,43.73
2023-02-11T17:21:45.801Z,43.76
2023-02-11T17:24:14.994Z,44.26
2023-02-11T17:26:43.466Z,44.31
2023-02-11T17:29:13.808Z,44.40
2023-02-11T17:31:41.288Z,45.93
2023-02-11T17:34:08.657Z,45.67
2023-02-11T17:36:36.540Z,46.25
2023-02-11T17:39:07.666Z,46.94
2023-02-11T17:41:37.041Z,46.82
2023-02-11T17:44:04.864Z,47.87
2023-02-11T17:46:32.319Z,48.47
2023-02-11T17:48:59.596Z,48.20
2023-02-11T17:51:35.848Z,48.22
2023-02-11T17:54:11.860Z,48.38
2023-02-11T17:56:39.227Z,48.76
2023-02-11T17:59:08.592Z,49.50
2023-02-11T18:01:37.710Z,48.65
2023-02-11T18:04:05.501Z,49.21
2023-02-11T18:06:36.373Z,48.88
2023-02-11T18:09:04.348Z,49.01
2023-02-11T18:11:33.676Z,49.35
2023-02-11T18:14:02.610Z,50.08
2023-02-11T18:16:30.446Z,49.73
2023-02-11T18:18:58.816Z,50.19
2023-02-11T18:21:26.376Z,51.50
2023-02-11T18:23:53.747Z,52.54
2023-02-11T18:26:21.460Z,52.95
2023-02-11T18:28:48.579Z,52.60
2023-02-11T18:31:15.882Z,53.22
2023-02-11T18:33:43.182Z,53.20
2023-02-11T18:36:14.838Z,54.12
2023-02-11T18:38:44.083Z,54.00
2023-02-11T18:41:12.267Z,53.99
2023-02-11T18:43:40.112Z,53.81
2023-02-11T18:46:10.608Z,53.72
2023-02-11T18:48:38.726Z,54.53
2023-02-11T18:51:14.904Z,54.44
2023-02-11T18:53:43.116Z,54.68
2023-02-11T18:56:22.077Z,55.15
2023-02-11T18:58:51.337Z,55.53
2023-02-11T19:01:21.239Z,56.01
2023-02-11T19:03:48.641Z,55.54
2023-02-11T19:06:27.024Z,56.20
2023-02-11T19:08:58.277Z,56.54
2023-02-11T19:11:46.416Z,57.18
2023-02-11T19:14:16.428Z,56.85
2023-02-11T19:16:46.048Z,56.99
2023-02-11T19:19:13.845Z,57.63
2023-02-11T19:21:43.633Z,57.75
2023-02-11T19:24:12.178Z,58.39
2023-02-11T19:26:39.304Z,59.11
2023-02-11T19:29:06.427Z,58.79
2023-02-11T19:31:34.087Z,58.02
2023-02-11T19:34:02.693Z,59.38
2023-02-11T19:36:30.060Z,59.22
2023-02-11T19:39:00.860Z,60.12
2023-02-11T19:41:28.910Z,59.97
2023-02-11T19:43:56.738Z,60.09
2023-02-11T19:46:25.591Z,59.77
2023-02-11T19:48:53.145Z,59.63
2023-02-11T19:51:21.287Z,59.65
2023-02-11T19:53:48.945Z,59.66
2023-02-11T19:56:16.080Z,60.25
2023-02-11T19:58:43.637Z,61.01
2023-02-11T20:01:10.655Z,61.49
2023-02-11T20:03:40.746Z,61.46
2023-02-11T20:06:13.811Z,61.19
2023-02-11T20:08:41.253Z,61.50
2023-02-11T20:11:11.499Z,61.69
2023-02-11T20:13:39.372Z,61.75
2023-02-11T20:16:19.683Z,62.01
2023-02-11T20:18:48.753Z,62.39
2023-02-11T20:21:24.438Z,62.55
2023-02-11T20:23:52.407Z,63.19
2023-02-11T20:26:22.440Z,63.72
2023-02-11T20:28:50.765Z,63.38
2023-02-11T20:31:18.682Z,62.79
2023-02-11T20:33:46.253Z,62.23
2023-02-11T20:36:17.655Z,62.82
2023-02-11T20:38:44.934Z,62.53
2023-02-11T20:41:15.739Z,62.71
2023-02-11T20:43:48.168Z,62.70
2023-02-11T20:46:17.612Z,63.31
2023-02-11T20:48:44.839Z,63.69
2023-02-11T20:51:17.788Z,64.04
2023-02-11T20:53:51.204Z,64.08
2023-02-11T20:56:21.486Z,62.71
2023-02-11T20:58:49.097Z,62.92
2023-02-11T21:01:25.168Z,62.94
2023-02-11T21:04:02.156Z,63.24
2023-02-11T21:06:36.958Z,64.10
2023-02-11T21:09:05.802Z,64.58
2023-02-11T21:11:33.011Z,64.05
2023-02-11T21:14:00.436Z,64.90
2023-02-11T21:16:28.035Z,64.29
2023-02-11T21:18:55.380Z,64.34
2023-02-11T21:21:22.527Z,64.13
2023-02-11T21:23:50.092Z,63.78
2023-02-11T21:26:17.278Z,63.99
2023-02-11T21:28:44.529Z,63.59
2023-02-11T21:31:21.965Z,63.62
2023-02-11T21:33:50.480Z,62.94
2023-02-11T21:36:17.850Z,62.77
2023-02-11T21:38:45.041Z,62.12
2023-02-11T21:41:12.238Z,62.99
2023-02-11T21:43:39.291Z,62.63
2023-02-11T21:46:09.732Z,62.24
2023-02-11T21:48:37.001Z,62.80
2023-02-11T21:51:13.388Z,63.68
2023-02-11T21:53:40.465Z,64.33
2023-02-11T21:56:16.912Z,64.78
2023-02-11T21:58:45.486Z,65.19
2023-02-11T22:01:33.580Z,65.10
2023-02-11T22:04:01.575Z,65.06
2023-02-11T22:06:32.861Z,65.05
2023-02-11T22:09:06.445Z,65.61
2023-02-11T22:11:33.643Z,65.20
2023-02-11T22:14:00.965Z,64.88
2023-02-11T22:16:30.212Z,65.24
2023-02-11T22:18:58.861Z,65.26
2023-02-11T22:21:26.210Z,65.26
2023-02-11T22:23:54.720Z,65.21
2023-02-11T22:26:23.304Z,65.05
2023-02-11T22:28:51.178Z,65.33
2023-02-11T22:31:21.252Z,64.78
2023-02-11T22:33:48.864Z,64.50
2023-02-11T22:36:22.512Z,64.13
2023-02-11T22:38:50.272Z,64.78
2023-02-11T22:41:18.317Z,64.40
2023-02-11T22:43:45.734Z,64.76
2023-02-11T22:46:16.847Z,65.77
2023-02-11T22:48:44.021Z,66.41
2023-02-11T22:51:14.421Z,67.99
2023-02-11T22:53:43.588Z,67.72
2023-02-11T22:56:15.381Z,68.29
2023-02-11T22:58:43.161Z,69.60
2023-02-11T23:01:11.132Z,69.22
2023-02-11T23:03:39.104Z,68.95
2023-02-11T23:06:07.456Z,68.52
2023-02-11T23:08:34.927Z,68.69
2023-02-11T23:11:07.631Z,68.19
2023-02-11T23:13:36.767Z,69.15
2023-02-11T23:16:06.595Z,68.72
2023-02-11T23:18:35.446Z,68.48
2023-02-11T23:21:12.699Z,68.72
2023-02-11T23:23:40.007Z,68.13
2023-02-11T23:26:13.686Z,69.60
2023-02-11T23:28:41.380Z,70.42
2023-02-11T23:31:20.044Z,70.99
2023-02-11T23:33:47.764Z,70.20
2023-02-11T23:36:15.761Z,69.30
2023-02-11T23:38:43.306Z,69.00
2023-02-11T23:41:11.255Z,68.84
2023-02-11T23:43:38.787Z,69.62
2023-02-11T23:46:06.978Z,69.67
2023-02-11T23:48:35.962Z,69.23
2023-02-11T23:51:03.636Z,68.76
2023-02-11T23:53:30.729Z,69.78
2023-02-11T23:55:57.837Z,69.79
2023-02-11T23:58:24.967Z,69.39
